createdAt,value
2018-10-02T00:01:30.470Z,19.20
2018-10-02T00:04:04.329Z,16.80
2018-10-02T00:06:38.369Z,14.73
2018-10-02T00:09:13.273Z,10.73
2018-10-02T00:11:52.524Z,12.33
2018-10-02T00:14:28.579Z,14.50
2018-10-02T00:17:02.672Z,11.60
2018-10-02T00:19:36.822Z,11.50
2018-10-02T00:22:11.313Z,11.77
2018-10-02T00:24:45.423Z,11.53
2018-10-02T00:27:19.609Z,9.87
2018-10-02T00:29:53.802Z,14.53
2018-10-02T00:32:28.441Z,13.40
2018-10-02T00:35:02.820Z,11.27
2018-10-02T00:37:36.661Z,10.90
2018-10-02T00:40:10.867Z,10.67
2018-10-02T00:42:44.778Z,11.03
2018-10-02T00:45:18.723Z,11.77
2018-10-02T00:47:52.832Z,11.67
2018-10-02T00:50:26.834Z,8.93
2018-10-02T00:53:00.984Z,14.20
2018-10-02T00:55:34.821Z,10.83
2018-10-02T00:58:08.840Z,12.80
2018-10-02T01:00:42.890Z,10.90
2018-10-02T01:03:17.362Z,13.97
2018-10-02T01:05:51.453Z,15.63
2018-10-02T01:08:26.019Z,13.60
2018-10-02T01:11:00.402Z,10.83
2018-10-02T01:13:34.601Z,14.43
2018-10-02T01:16:08.429Z,13.70
2018-10-02T01:18:42.463Z,14.00
2018-10-02T01:21:16.543Z,14.57
2018-10-02T01:23:50.439Z,11.00
2018-10-02T01:26:24.741Z,12.63
2018-10-02T01:28:58.914Z,12.40
2018-10-02T01:31:33.142Z,13.30
2018-10-02T01:34:07.183Z,12.47
2018-10-02T01:36:41.157Z,12.77
2018-10-02T01:39:15.163Z,13.03
2018-10-02T01:41:49.065Z,12.67
2018-10-02T01:44:23.218Z,15.57
2018-10-02T01:46:57.569Z,10.03
2018-10-02T01:49:31.572Z,8.67
2018-10-02T01:52:05.664Z,12.87
2018-10-02T01:54:39.724Z,11.57
2018-10-02T01:57:13.668Z,10.47
2018-10-02T01:59:48.537Z,10.57
2018-10-02T02:02:22.964Z,9.83
2018-10-02T02:04:57.223Z,9.00
2018-10-02T02:07:31.193Z,8.80
2018-10-02T02:10:05.539Z,7.47
2018-10-02T02:12:39.418Z,6.27
2018-10-02T02:15:13.313Z,7.20
2018-10-02T02:17:47.467Z,6.77
2018-10-02T02:20:21.548Z,7.30
2018-10-02T02:22:55.729Z,10.30
2018-10-02T02:25:29.680Z,7.07
2018-10-02T02:28:03.578Z,6.77
2018-10-02T02:30:37.877Z,6.20
2018-10-02T02:33:11.729Z,4.93
2018-10-02T02:35:45.792Z,7.07
2018-10-02T02:38:20.050Z,5.00
2018-10-02T02:40:54.629Z,6.37
2018-10-02T02:43:29.264Z,5.40
2018-10-02T02:46:03.209Z,5.50
2018-10-02T02:48:42.532Z,5.57
2018-10-02T02:51:19.709Z,4.70
2018-10-02T02:53:54.425Z,6.37
2018-10-02T02:56:29.370Z,7.10
2018-10-02T02:59:03.397Z,5.93
2018-10-02T03:01:37.329Z,7.93
2018-10-02T03:04:11.385Z,7.00
2018-10-02T03:06:45.440Z,7.60
2018-10-02T03:09:19.661Z,7.00
2018-10-02T03:11:54.164Z,6.73
2018-10-02T03:14:28.285Z,7.20
2018-10-02T03:17:02.193Z,7.80
2018-10-02T03:19:36.165Z,7.13
2018-10-02T03:22:10.003Z,5.70
2018-10-02T03:24:43.969Z,7.63
2018-10-02T03:27:18.049Z,6.70
2018-10-02T03:29:52.058Z,8.60
2018-10-02T03:32:26.672Z,6.90
2018-10-02T03:35:00.648Z,8.30
2018-10-02T03:37:34.777Z,6.93
2018-10-02T03:40:08.812Z,8.40
2018-10-02T03:42:42.796Z,7.83
2018-10-02T03:45:16.948Z,8.67
2018-10-02T03:47:50.909Z,7.43
2018-10-02T03:50:24.920Z,7.53
2018-10-02T03:52:58.840Z,8.93
2018-10-02T03:55:32.817Z,6.90
2018-10-02T03:58:06.877Z,7.43
2018-10-02T04:00:40.873Z,8.83
2018-10-02T04:03:14.917Z,7.70
2018-10-02T04:05:49.317Z,7.50
2018-10-02T04:08:23.590Z,7.53
2018-10-02T04:10:57.704Z,7.20
2018-10-02T04:16:12.126Z,7.67
2018-10-02T04:18:46.314Z,7.97
2018-10-02T04:21:25.671Z,8.10
2018-10-02T04:24:01.474Z,9.70
2018-10-02T04:26:36.687Z,9.63
2018-10-02T04:29:10.636Z,9.70
2018-10-02T04:31:44.891Z,9.10
2018-10-02T04:34:18.933Z,8.87
2018-10-02T04:36:52.979Z,12.00
2018-10-02T04:39:27.128Z,10.60
2018-10-02T04:42:01.614Z,9.70
2018-10-02T04:44:36.090Z,9.80
2018-10-02T04:47:10.269Z,10.00
2018-10-02T04:49:44.342Z,10.03
2018-10-02T04:52:18.311Z,9.80
2018-10-02T04:54:52.669Z,9.40
2018-10-02T04:57:27.411Z,9.10
2018-10-02T05:00:01.437Z,10.30
2018-10-02T05:02:35.650Z,10.83
2018-10-02T05:05:10.785Z,10.00
2018-10-02T05:07:44.689Z,10.23
2018-10-02T05:10:19.446Z,9.13
2018-10-02T05:12:53.705Z,10.40
2018-10-02T05:15:28.116Z,7.63
2018-10-02T05:18:02.673Z,7.80
2018-10-02T05:20:37.210Z,9.67
2018-10-02T05:23:11.534Z,10.10
2018-10-02T05:25:45.627Z,9.43
2018-10-02T05:28:19.682Z,8.33
2018-10-02T05:30:54.319Z,9.17
2018-10-02T05:33:28.470Z,7.30
2018-10-02T05:36:02.710Z,7.90
2018-10-02T05:38:37.042Z,9.80
2018-10-02T05:41:11.830Z,9.20
2018-10-02T05:43:46.219Z,8.77
2018-10-02T05:46:20.916Z,9.60
2018-10-02T05:48:55.414Z,8.07
2018-10-02T05:51:29.368Z,9.20
2018-10-02T05:54:03.721Z,8.90
2018-10-02T05:56:38.218Z,9.13
2018-10-02T05:59:12.682Z,8.90
2018-10-02T06:04:34.080Z,8.40
2018-10-02T06:07:16.558Z,8.30
2018-10-02T06:09:51.011Z,9.73
2018-10-02T06:12:25.506Z,11.33
2018-10-02T06:15:01.287Z,10.77
2018-10-02T06:17:35.385Z,9.70
2018-10-02T06:20:13.591Z,9.43
2018-10-02T06:22:47.658Z,10.50
2018-10-02T06:25:32.160Z,9.50
2018-10-02T06:28:07.751Z,9.87
2018-10-02T06:30:42.355Z,11.07
2018-10-02T06:33:16.472Z,10.30
2018-10-02T06:35:51.771Z,9.23
2018-10-02T06:38:26.170Z,10.20
2018-10-02T06:41:00.336Z,9.90
2018-10-02T06:43:36.459Z,11.60
2018-10-02T06:46:11.269Z,10.70
2018-10-02T06:48:45.716Z,10.10
2018-10-02T06:51:20.514Z,11.43
2018-10-02T06:53:57.385Z,11.50
2018-10-02T06:56:43.917Z,10.87
2018-10-02T06:59:21.383Z,11.40
2018-10-02T07:04:57.825Z,11.73
2018-10-02T07:07:32.510Z,13.50
2018-10-02T07:12:53.701Z,12.67
2018-10-02T07:15:28.074Z,12.87
2018-10-02T07:18:02.677Z,13.87
2018-10-02T07:20:44.298Z,12.63
2018-10-02T07:23:18.665Z,11.90
2018-10-02T07:25:53.839Z,12.30
2018-10-02T07:28:34.515Z,11.60
2018-10-02T07:31:08.924Z,11.53
2018-10-02T07:33:43.130Z,10.43
2018-10-02T07:36:23.505Z,11.70
2018-10-02T07:41:42.277Z,12.20
2018-10-02T07:44:16.673Z,11.03
2018-10-02T07:49:52.983Z,13.30
2018-10-02T07:52:28.703Z,13.40
2018-10-02T07:55:03.275Z,10.67
2018-10-02T07:57:37.746Z,9.90
2018-10-02T08:00:12.376Z,14.07
2018-10-02T08:02:47.369Z,12.87
2018-10-02T08:05:21.884Z,11.67
2018-10-02T08:10:50.064Z,11.93
2018-10-02T08:13:24.678Z,14.30
2018-10-02T08:16:04.605Z,12.40
2018-10-02T08:18:38.944Z,11.03
2018-10-02T08:21:13.045Z,10.07
2018-10-02T08:23:47.484Z,10.73
2018-10-02T08:29:07.063Z,7.30
2018-10-02T08:31:42.321Z,8.67
2018-10-02T08:34:22.807Z,7.80
2018-10-02T08:39:50.614Z,7.63
2018-10-02T08:42:30.827Z,8.40
2018-10-02T08:45:04.989Z,7.73
2018-10-02T08:50:20.562Z,6.90
2018-10-02T08:53:01.851Z,6.90
2018-10-02T08:55:36.232Z,7.30
2018-10-02T08:58:10.457Z,5.43
2018-10-02T09:00:45.192Z,5.93
2018-10-02T09:03:19.844Z,7.10
2018-10-02T09:08:44.934Z,5.63
2018-10-02T09:11:19.899Z,5.30
2018-10-02T09:16:52.280Z,4.90
2018-10-02T09:19:26.439Z,5.17
2018-10-02T09:22:09.180Z,4.80
2018-10-02T09:24:43.848Z,5.07
2018-10-02T09:27:28.301Z,6.60
2018-10-02T09:30:07.700Z,4.30
2018-10-02T09:32:47.636Z,6.53
2018-10-02T09:35:27.288Z,5.50
2018-10-02T09:38:07.473Z,4.70
2018-10-02T09:40:47.313Z,4.97
2018-10-02T09:43:31.009Z,3.73
2018-10-02T09:46:55.916Z,3.80
2018-10-02T09:52:18.627Z,3.00
2018-10-02T09:54:53.987Z,3.20
2018-10-02T09:57:29.024Z,3.70
2018-10-02T10:00:03.345Z,2.60
2018-10-02T10:02:38.563Z,2.83
2018-10-02T10:05:13.031Z,3.00
2018-10-02T10:13:49.420Z,3.77
2018-10-02T10:16:24.593Z,3.10
2018-10-02T10:18:59.162Z,4.00
2018-10-02T10:21:33.749Z,2.70
2018-10-02T10:27:09.543Z,2.50
2018-10-02T10:29:53.475Z,2.63
2018-10-02T10:32:27.869Z,2.57
2018-10-02T10:37:50.563Z,3.10
2018-10-02T10:40:26.508Z,3.00
2018-10-02T10:43:01.928Z,2.90
2018-10-02T10:45:36.222Z,3.83
2018-10-02T10:48:18.083Z,3.10
2018-10-02T10:53:42.693Z,2.73
2018-10-02T10:56:18.124Z,3.50
2018-10-02T11:01:45.958Z,3.33
2018-10-02T11:04:31.487Z,2.90
2018-10-02T11:07:41.332Z,3.10
2018-10-02T11:16:24.779Z,2.97
2018-10-02T11:21:48.402Z,2.83
2018-10-02T11:24:24.476Z,2.80
2018-10-02T11:29:47.351Z,2.53
2018-10-02T11:32:22.553Z,2.50
2018-10-02T11:34:57.304Z,2.73
2018-10-02T11:37:31.829Z,2.53
2018-10-02T11:40:08.251Z,3.03
2018-10-02T11:42:50.056Z,3.30
2018-10-02T11:51:24.337Z,3.70
2018-10-02T11:53:59.360Z,2.37
2018-10-02T11:56:41.966Z,3.07
2018-10-02T12:02:08.194Z,3.60
2018-10-02T12:04:42.553Z,3.03
2018-10-02T12:07:16.925Z,3.37
2018-10-02T12:15:21.935Z,2.83
2018-10-02T12:18:04.889Z,2.53
2018-10-02T12:20:51.994Z,2.23
2018-10-02T12:23:37.563Z,2.40
2018-10-02T12:26:22.127Z,2.53
2018-10-02T12:31:52.038Z,2.17
2018-10-02T12:40:16.761Z,2.37
2018-10-02T12:42:56.035Z,2.63
2018-10-02T12:48:20.408Z,3.73
2018-10-02T12:50:55.265Z,3.50
2018-10-02T12:56:26.018Z,2.67
2018-10-02T12:59:01.519Z,3.00
2018-10-02T13:01:36.116Z,3.23
2018-10-02T13:04:11.758Z,2.97
2018-10-02T13:12:23.762Z,2.67
2018-10-02T13:16:00.961Z,2.83
2018-10-02T13:18:38.290Z,3.03
2018-10-02T13:21:15.706Z,2.60
2018-10-02T13:23:55.842Z,2.57
2018-10-02T13:29:21.338Z,3.57
2018-10-02T13:32:01.908Z,2.40
2018-10-02T13:40:26.335Z,2.60
2018-10-02T13:43:02.068Z,2.80
2018-10-02T13:45:42.001Z,2.93
2018-10-02T13:48:20.650Z,4.10
2018-10-02T13:50:55.213Z,2.90
2018-10-02T13:56:18.886Z,2.90
2018-10-02T13:58:53.164Z,2.90
2018-10-02T14:04:30.544Z,3.07
2018-10-02T14:07:12.648Z,2.77
2018-10-02T14:09:47.677Z,2.47
2018-10-02T14:12:22.036Z,2.70
2018-10-02T14:14:56.744Z,2.50
2018-10-02T14:28:59.513Z,2.40
2018-10-02T14:31:33.849Z,2.53
2018-10-02T14:34:08.109Z,2.73
2018-10-02T14:36:42.737Z,2.60
2018-10-02T14:39:16.973Z,2.60
2018-10-02T14:41:55.065Z,2.70
2018-10-02T14:44:30.853Z,2.67
2018-10-02T14:52:56.122Z,2.90
2018-10-02T14:55:31.502Z,3.10
2018-10-02T15:01:10.303Z,3.77
2018-10-02T15:03:48.366Z,3.70
2018-10-02T15:06:22.923Z,2.77
2018-10-02T15:11:43.546Z,3.17
2018-10-02T15:14:18.280Z,3.77
2018-10-02T15:17:00.265Z,2.80
2018-10-02T15:19:35.051Z,4.27
2018-10-02T15:28:17.397Z,3.83
2018-10-02T15:30:52.294Z,3.70
2018-10-02T15:33:32.666Z,2.73
2018-10-02T15:45:29.149Z,2.67
2018-10-02T15:48:11.548Z,3.50
2018-10-02T16:08:23.275Z,2.90
2018-10-02T16:16:54.307Z,4.13
2018-10-02T16:22:26.963Z,2.40
2018-10-02T16:27:56.117Z,2.97
2018-10-02T16:33:34.424Z,3.53
2018-10-02T16:36:17.175Z,3.30
2018-10-02T16:53:21.616Z,4.43
2018-10-02T17:04:03.956Z,5.37
2018-10-02T17:18:30.044Z,5.03
2018-10-02T17:21:05.549Z,5.00
2018-10-02T17:29:21.459Z,5.07
2018-10-02T17:32:01.692Z,5.53
2018-10-02T17:34:36.177Z,4.10
2018-10-02T17:37:10.559Z,4.10
2018-10-02T17:42:38.114Z,5.17
2018-10-02T17:45:22.788Z,4.83
2018-10-02T17:53:52.074Z,4.27
2018-10-02T18:04:39.262Z,5.13
2018-10-02T18:07:23.646Z,4.63
2018-10-02T18:10:00.046Z,3.60
2018-10-02T18:12:34.620Z,2.90
2018-10-02T18:21:35.695Z,3.97
2018-10-02T18:24:10.330Z,3.20
2018-10-02T18:26:58.699Z,3.60
2018-10-02T18:29:40.038Z,4.43
2018-10-02T18:32:15.442Z,3.10
2018-10-02T18:34:50.031Z,4.07
2018-10-02T18:37:29.402Z,4.17
2018-10-02T18:40:05.430Z,3.23
2018-10-02T18:42:39.652Z,3.40
2018-10-02T18:45:16.594Z,3.67
2018-10-02T18:47:54.844Z,2.90
2018-10-02T18:50:29.802Z,3.17
2018-10-02T18:53:04.101Z,3.10
2018-10-02T18:55:41.575Z,3.03
2018-10-02T18:58:21.621Z,3.10
2018-10-02T19:01:05.374Z,3.67
2018-10-02T19:04:09.654Z,2.83
2018-10-02T19:06:43.998Z,3.30
2018-10-02T19:09:18.926Z,3.57
2018-10-02T19:14:42.243Z,3.53
2018-10-02T19:17:18.612Z,3.40
2018-10-02T19:20:06.481Z,3.73
2018-10-02T19:22:49.771Z,3.20
2018-10-02T19:28:27.987Z,3.40
2018-10-02T19:31:14.379Z,2.23
2018-10-02T19:33:48.460Z,3.63
2018-10-02T19:36:19.631Z,2.40
2018-10-02T19:38:56.405Z,2.33
2018-10-02T19:44:12.051Z,1.40
2018-10-02T19:46:45.451Z,1.67
2018-10-02T19:49:13.902Z,1.93
2018-10-02T19:51:48.406Z,1.50
2018-10-02T19:54:31.043Z,2.03
2018-10-02T19:57:05.126Z,1.70
2018-10-02T20:04:52.735Z,1.83
2018-10-02T20:07:22.021Z,1.50
2018-10-02T20:09:50.597Z,1.93
2018-10-02T20:12:19.544Z,1.80
2018-10-02T20:14:59.770Z,2.57
2018-10-02T20:17:28.248Z,2.40
2018-10-02T20:19:56.977Z,1.93
2018-10-02T20:22:34.884Z,2.40
2018-10-02T20:25:03.459Z,2.53
2018-10-02T20:27:31.893Z,2.37
2018-10-02T20:30:00.717Z,2.73
2018-10-02T20:35:47.347Z,3.50
2018-10-02T20:38:17.205Z,2.07
2018-10-02T20:40:45.633Z,3.00
2018-10-02T20:46:03.217Z,3.30
2018-10-02T20:51:09.359Z,2.83
2018-10-02T20:53:37.625Z,2.70
2018-10-02T20:56:06.201Z,2.80
2018-10-02T20:58:39.171Z,2.80
2018-10-02T21:01:10.949Z,3.23
2018-10-02T21:03:40.820Z,3.10
2018-10-02T21:06:09.869Z,2.73
2018-10-02T21:08:38.989Z,2.70
2018-10-02T21:13:50.484Z,2.70
2018-10-02T21:16:19.496Z,3.30
2018-10-02T21:18:49.037Z,2.17
2018-10-02T21:21:29.652Z,2.90
2018-10-02T21:23:58.038Z,2.87
2018-10-02T21:26:26.066Z,2.63
2018-10-02T21:28:58.669Z,2.90
2018-10-02T21:31:27.155Z,3.37
2018-10-02T21:33:55.520Z,2.67
2018-10-02T21:36:23.638Z,2.50
2018-10-02T21:38:51.862Z,2.93
2018-10-02T21:41:20.184Z,2.87
2018-10-02T21:43:48.535Z,2.50
2018-10-02T21:46:16.929Z,2.90
2018-10-02T21:48:45.255Z,3.23
2018-10-02T21:51:13.577Z,2.87
2018-10-02T21:53:42.510Z,4.13
2018-10-02T21:58:44.272Z,3.00
2018-10-02T22:01:12.763Z,3.70
2018-10-02T22:03:41.258Z,3.93
2018-10-02T22:08:53.248Z,3.83
2018-10-02T22:11:21.550Z,3.67
2018-10-02T22:13:49.716Z,3.93
2018-10-02T22:16:18.025Z,4.30
2018-10-02T22:18:50.262Z,4.70
2018-10-02T22:21:18.389Z,3.93
2018-10-02T22:23:47.850Z,4.27
2018-10-02T22:26:15.962Z,4.00
2018-10-02T22:28:44.171Z,4.60
2018-10-02T22:31:12.258Z,4.40
2018-10-02T22:33:40.367Z,4.13
2018-10-02T22:36:08.981Z,4.90
2018-10-02T22:38:37.229Z,3.30
2018-10-02T22:43:44.885Z,4.13
2018-10-02T22:46:13.413Z,4.60
2018-10-02T22:48:41.661Z,4.10
2018-10-02T22:51:10.051Z,4.63
2018-10-02T22:53:38.259Z,5.43
2018-10-02T22:56:06.704Z,4.00
2018-10-02T22:58:34.927Z,4.00
2018-10-02T23:01:03.264Z,4.67
2018-10-02T23:03:32.249Z,3.97
2018-10-02T23:06:01.011Z,4.03
2018-10-02T23:08:29.436Z,4.97
2018-10-02T23:10:57.590Z,4.30
2018-10-02T23:13:27.670Z,4.30
2018-10-02T23:15:56.022Z,4.27
2018-10-02T23:18:25.176Z,4.17
2018-10-02T23:20:53.449Z,3.30
2018-10-02T23:23:21.661Z,4.23
2018-10-02T23:25:49.795Z,4.77
2018-10-02T23:28:18.161Z,4.70
2018-10-02T23:30:46.526Z,3.90
2018-10-02T23:33:14.538Z,4.53
2018-10-02T23:35:42.749Z,4.37
2018-10-02T23:38:11.706Z,4.43
2018-10-02T23:40:39.782Z,4.03
2018-10-02T23:43:08.465Z,4.30
2018-10-02T23:45:36.716Z,4.23
2018-10-02T23:48:05.232Z,3.83
2018-10-02T23:50:33.856Z,4.00
2018-10-02T23:53:02.401Z,4.30
2018-10-02T23:55:30.952Z,3.70
2018-10-02T23:58:00.216Z,4.50
